Time;durP1;ratioP1;P1;durP2;ratioP2;P2;SDS_P1;SDS_P2;PMS_P1;PMS_P2;Temp;Humidity;BMP_temperature;BMP_pressure;BME280_temperature;BME280_humidity;BME280_pressure;Samples;Min_cycle;Max_cycle;Signal;HPM_P1;HPM_P2
2023/03/03 00:00:53;;;;;;;28.85;19.60;;;2.20;99.90;;;;;;7365984;19;20502;-71
2023/03/03 00:03:23;;;;;;;29.10;19.80;;;2.20;99.90;;;;;;7368352;19;20022;-71
2023/03/03 00:05:49;;;;;;;34.42;21.80;;;2.20;99.90;;;;;;7365866;19;20037;-71
2023/03/03 00:08:17;;;;;;;31.05;20.70;;;2.10;99.90;;;;;;7366673;19;20018;-70
2023/03/03 00:10:44;;;;;;;30.83;20.20;;;2.10;99.90;;;;;;7367687;19;20547;-71
2023/03/03 00:13:22;;;;;;;29.73;19.52;;;2.10;99.90;;;;;;7368264;19;20627;-70
2023/03/03 00:15:49;;;;;;;28.23;18.25;;;2.10;99.90;;;;;;7367460;19;20404;-71
2023/03/03 00:18:27;;;;;;;33.10;21.25;;;2.10;99.90;;;;;;7371061;19;20010;-71
2023/03/03 00:20:57;;;;;;;33.92;21.05;;;2.10;99.90;;;;;;7365028;19;20026;-71
2023/03/03 00:23:39;;;;;;;32.25;21.33;;;2.10;99.90;;;;;;7366546;19;20023;-71
2023/03/03 00:26:29;;;;;;;33.65;20.98;;;2.20;99.90;;;;;;7367665;19;20109;-71
2023/03/03 00:28:56;;;;;;;32.20;19.60;;;2.20;99.90;;;;;;7364938;19;20018;-71
2023/03/03 00:31:33;;;;;;;31.58;18.92;;;2.10;99.90;;;;;;7367709;19;20484;-71
2023/03/03 00:34:17;;;;;;;26.45;18.23;;;2.20;99.90;;;;;;7368242;19;20498;-63
2023/03/03 00:36:44;;;;;;;29.83;19.23;;;2.20;99.90;;;;;;7369238;19;20062;-71
2023/03/03 00:39:30;;;;;;;27.45;17.58;;;2.10;99.90;;;;;;7370418;19;20023;-71
2023/03/03 00:41:59;;;;;;;27.27;18.80;;;2.20;99.90;;;;;;7367573;19;20018;-63
2023/03/03 00:44:41;;;;;;;28.20;19.17;;;2.20;99.90;;;;;;7369777;19;20660;-71
2023/03/03 00:47:24;;;;;;;28.95;18.95;;;2.20;99.90;;;;;;7369949;19;20018;-71
2023/03/03 00:49:50;;;;;;;29.20;18.63;;;2.10;99.90;;;;;;7374922;19;20036;-71
2023/03/03 00:52:18;;;;;;;31.55;19.98;;;2.10;99.90;;;;;;7378562;19;20015;-71
2023/03/03 00:54:44;;;;;;;31.13;19.70;;;2.10;99.90;;;;;;7373048;19;20023;-71
2023/03/03 00:57:14;;;;;;;30.33;20.17;;;2.10;99.90;;;;;;7373912;19;20022;-71
2023/03/03 00:59:41;;;;;;;29.65;21.33;;;2.20;99.90;;;;;;7374263;19;20049;-71
2023/03/03 01:02:08;;;;;;;35.45;20.92;;;2.20;99.90;;;;;;7372222;19;20086;-71
2023/03/03 01:04:34;;;;;;;35.78;22.95;;;2.20;99.90;;;;;;7375293;19;20033;-71
2023/03/03 01:07:01;;;;;;;38.80;22.50;;;2.20;99.90;;;;;;7368379;19;20019;-71
2023/03/03 01:09:27;;;;;;;37.63;22.45;;;2.20;99.90;;;;;;7375041;19;20037;-63
2023/03/03 01:11:54;;;;;;;36.55;21.67;;;2.20;99.90;;;;;;7374319;19;20919;-71
2023/03/03 01:14:21;;;;;;;39.13;22.42;;;2.20;99.90;;;;;;7377100;19;20114;-63
2023/03/03 01:16:49;;;;;;;37.47;22.52;;;2.20;99.90;;;;;;7376389;19;20115;-71
2023/03/03 01:19:21;;;;;;;41.85;23.25;;;2.20;99.90;;;;;;7376028;19;20668;-64
2023/03/03 01:21:48;;;;;;;40.90;24.55;;;2.20;99.90;;;;;;7375250;19;20094;-70
2023/03/03 01:24:14;;;;;;;42.20;23.75;;;2.20;99.90;;;;;;7376431;19;20616;-63
2023/03/03 01:26:43;;;;;;;42.13;24.42;;;2.20;99.90;;;;;;7376856;19;20873;-63
2023/03/03 01:29:11;;;;;;;39.42;24.02;;;2.20;99.90;;;;;;7375001;19;20018;-63
2023/03/03 01:31:37;;;;;;;37.22;24.00;;;2.20;99.90;;;;;;7377263;19;20475;-63
2023/03/03 01:34:04;;;;;;;50.42;25.95;;;2.30;99.90;;;;;;7374012;19;20015;-63
2023/03/03 01:36:30;;;;;;;42.55;23.45;;;2.20;99.90;;;;;;7374691;19;20022;-63
2023/03/03 01:39:00;;;;;;;41.80;24.38;;;2.20;99.90;;;;;;7372938;19;20019;-70
2023/03/03 01:41:29;;;;;;;48.10;24.73;;;2.30;99.90;;;;;;7372135;19;20149;-70
2023/03/03 01:43:56;;;;;;;48.13;23.05;;;2.30;99.90;;;;;;7374934;19;20036;-70
2023/03/03 01:46:25;;;;;;;41.75;22.92;;;2.30;99.90;;;;;;7374673;19;20015;-71
2023/03/03 01:49:01;;;;;;;47.95;23.67;;;2.30;99.90;;;;;;7373851;19;20065;-64
2023/03/03 01:51:32;;;;;;;44.03;24.75;;;2.30;99.90;;;;;;7373079;19;20031;-70
2023/03/03 01:54:01;;;;;;;44.38;22.60;;;2.40;99.90;;;;;;7373168;19;20018;-70
2023/03/03 01:56:30;;;;;;;46.40;23.25;;;2.30;99.90;;;;;;7372309;19;20053;-70
2023/03/03 01:59:06;;;;;;;56.08;25.88;;;2.30;99.90;;;;;;7372986;19;20025;-71
2023/03/03 02:01:33;;;;;;;44.08;22.40;;;2.30;99.90;;;;;;7369469;19;20036;-71
2023/03/03 02:04:08;;;;;;;42.95;22.40;;;2.30;99.90;;;;;;7371563;19;20019;-71
2023/03/03 02:06:43;;;;;;;51.60;25.75;;;2.30;99.90;;;;;;7373894;19;20656;-70
2023/03/03 02:09:14;;;;;;;;;;;2.20;99.90;;;;;;7372197;19;20731;-70
2023/03/03 02:11:43;;;;;;;49.97;21.67;;;2.30;99.90;;;;;;7369609;19;20261;-71
2023/03/03 02:14:12;;;;;;;52.42;23.15;;;2.30;99.90;;;;;;7367338;19;20040;-71
2023/03/03 02:16:43;;;;;;;54.47;26.48;;;2.30;99.90;;;;;;7370539;19;20014;-71
2023/03/03 02:19:41;;;;;;;54.65;24.67;;;2.30;99.90;;;;;;7370667;19;20037;-70
2023/03/03 02:22:11;;;;;;;49.78;22.00;;;2.30;99.90;;;;;;7368586;19;20022;-70
2023/03/03 02:24:59;;;;;;;46.20;20.92;;;2.30;99.90;;;;;;7363875;19;20023;-70
2023/03/03 02:27:30;;;;;;;35.35;18.42;;;2.30;99.90;;;;;;7366015;19;20019;-71
2023/03/03 02:30:13;;;;;;;41.78;19.98;;;2.40;99.90;;;;;;7362942;19;20022;-71
2023/03/03 02:32:47;;;;;;;47.47;20.08;;;2.40;99.90;;;;;;7368262;19;20022;-71
2023/03/03 02:35:24;;;;;;;51.33;20.75;;;2.40;99.90;;;;;;7366114;19;20589;-71
2023/03/03 02:37:51;;;;;;;56.85;20.23;;;2.40;99.90;;;;;;7366765;19;20528;-70
2023/03/03 02:40:23;;;;;;;46.45;20.48;;;2.40;99.90;;;;;;7365589;19;20019;-70
2023/03/03 02:42:51;;;;;;;50.83;19.05;;;2.30;99.90;;;;;;7367701;19;20863;-70
2023/03/03 02:45:18;;;;;;;59.85;20.80;;;2.40;99.90;;;;;;7368703;19;20018;-70
2023/03/03 02:47:51;;;;;;;63.08;19.15;;;2.30;99.90;;;;;;7367308;19;20493;-71
2023/03/03 02:50:18;;;;;;;58.38;18.17;;;2.30;99.90;;;;;;7370090;19;20018;-70
2023/03/03 02:52:44;;;;;;;53.83;18.83;;;2.30;99.90;;;;;;7368595;19;20022;-71
2023/03/03 02:55:14;;;;;;;97.22;22.48;;;2.30;99.90;;;;;;7367490;19;20027;-70
2023/03/03 02:57:44;;;;;;;65.43;19.33;;;2.30;99.90;;;;;;7365137;19;20014;-70
2023/03/03 03:00:11;;;;;;;85.18;24.42;;;2.30;99.90;;;;;;7369747;19;20060;-70
2023/03/03 03:02:37;;;;;;;123.68;25.42;;;2.30;99.90;;;;;;7365168;19;20019;-71
2023/03/03 03:05:08;;;;;;;84.80;22.10;;;2.30;99.90;;;;;;7361506;19;20478;-70
2023/03/03 03:07:35;;;;;;;100.18;22.00;;;2.30;99.90;;;;;;7364862;19;20019;-63
2023/03/03 03:10:07;;;;;;;78.40;21.75;;;2.30;99.90;;;;;;7364116;19;20026;-63
2023/03/03 03:12:36;;;;;;;105.05;24.45;;;2.30;99.90;;;;;;7363931;19;20041;-63
2023/03/03 03:15:08;;;;;;;;;;;2.20;99.90;;;;;;7365872;19;20093;-63
2023/03/03 03:17:38;;;;;;;89.63;22.38;;;2.20;99.90;;;;;;7365198;19;20524;-63
2023/03/03 03:20:06;;;;;;;73.68;18.52;;;2.20;99.90;;;;;;7363704;19;20022;-63
2023/03/03 03:22:34;;;;;;;68.00;20.05;;;2.20;99.90;;;;;;7362163;19;20018;-63
2023/03/03 03:25:00;;;;;;;77.97;20.83;;;2.30;99.90;;;;;;7367080;19;20360;-63
2023/03/03 03:27:27;;;;;;;100.38;21.55;;;2.30;99.90;;;;;;7363772;19;20022;-63
2023/03/03 03:29:54;;;;;;;85.72;22.40;;;2.30;99.90;;;;;;7365174;19;20910;-63
2023/03/03 03:32:22;;;;;;;109.45;22.27;;;2.30;99.90;;;;;;7365751;19;20022;-63
2023/03/03 03:34:49;;;;;;;113.32;24.45;;;2.30;99.90;;;;;;7364833;19;21915;-65
2023/03/03 03:37:16;;;;;;;86.28;21.95;;;2.30;99.90;;;;;;7360635;19;20019;-63
2023/03/03 03:39:45;;;;;;;149.82;26.42;;;2.40;99.90;;;;;;7363265;19;20025;-63
2023/03/03 03:42:11;;;;;;;124.68;24.80;;;2.40;99.90;;;;;;7358101;19;20022;-63
2023/03/03 03:44:38;;;;;;;142.95;27.05;;;2.40;99.90;;;;;;7363809;19;20081;-63
2023/03/03 03:47:05;;;;;;;158.73;28.67;;;2.40;99.90;;;;;;7362497;19;20042;-63
2023/03/03 03:49:32;;;;;;;115.78;23.83;;;2.40;99.90;;;;;;7365532;19;20030;-63
2023/03/03 03:51:59;;;;;;;128.73;27.08;;;2.40;99.90;;;;;;7363712;19;20757;-63
2023/03/03 03:54:29;;;;;;;188.45;30.65;;;2.40;99.90;;;;;;7363255;19;20043;-63
2023/03/03 03:57:00;;;;;;;134.68;26.55;;;2.40;99.90;;;;;;7362300;19;20413;-63
2023/03/03 03:59:28;;;;;;;131.45;26.90;;;2.40;99.90;;;;;;7358446;19;20482;-63
2023/03/03 04:01:55;;;;;;;122.38;26.08;;;2.50;99.90;;;;;;7363703;19;20033;-63
2023/03/03 04:04:23;;;;;;;156.90;29.35;;;2.50;99.90;;;;;;7366080;19;20037;-63
2023/03/03 04:06:50;;;;;;;183.60;30.55;;;2.50;99.90;;;;;;7362869;19;20013;-63
2023/03/03 04:09:17;;;;;;;206.02;31.77;;;2.50;99.90;;;;;;7364935;19;20018;-63
2023/03/03 04:11:44;;;;;;;126.53;27.15;;;2.50;99.90;;;;;;7363400;19;20030;-63
2023/03/03 04:14:12;;;;;;;216.32;33.85;;;2.50;99.90;;;;;;7364637;19;20018;-70
2023/03/03 04:16:38;;;;;;;232.00;34.05;;;2.50;99.90;;;;;;7360006;19;20014;-63
2023/03/03 04:19:05;;;;;;;143.75;29.00;;;2.50;99.90;;;;;;7361781;19;20022;-63
2023/03/03 04:21:33;;;;;;;202.32;33.22;;;2.50;99.90;;;;;;7361254;19;20632;-63
2023/03/03 04:24:01;;;;;;;136.77;24.80;;;2.50;99.90;;;;;;7368981;19;20022;-63
2023/03/03 04:26:31;;;;;;;160.07;27.80;;;2.60;99.90;;;;;;7367832;19;20017;-63
2023/03/03 04:29:00;;;;;;;115.57;25.60;;;2.50;99.90;;;;;;7368338;19;20309;-63
2023/03/03 04:31:32;;;;;;;103.90;23.15;;;2.60;99.90;;;;;;7366665;19;20022;-63
2023/03/03 04:34:00;;;;;;;210.65;31.63;;;2.60;99.90;;;;;;7369398;19;20347;-63
2023/03/03 04:36:28;;;;;;;132.85;26.73;;;2.60;99.90;;;;;;7373957;19;20700;-63
2023/03/03 04:38:54;;;;;;;146.32;27.58;;;2.60;99.90;;;;;;7372549;19;20102;-63
2023/03/03 04:41:21;;;;;;;164.63;28.98;;;2.60;99.90;;;;;;7372417;19;20019;-70
2023/03/03 04:43:49;;;;;;;113.80;24.23;;;2.60;99.90;;;;;;7370909;19;20018;-70
2023/03/03 04:46:16;;;;;;;76.13;18.50;;;2.60;99.90;;;;;;7372354;19;20018;-70
2023/03/03 04:48:42;;;;;;;144.38;22.77;;;2.60;99.90;;;;;;7370456;19;20015;-70
2023/03/03 04:51:10;;;;;;;96.75;17.38;;;2.60;99.90;;;;;;7372319;19;20019;-70
2023/03/03 04:53:37;;;;;;;92.30;17.63;;;2.60;99.90;;;;;;7373462;19;20025;-70
2023/03/03 04:56:15;;;;;;;86.10;16.92;;;2.60;99.90;;;;;;7373765;19;20046;-70
2023/03/03 04:58:41;;;;;;;102.68;17.88;;;2.60;99.90;;;;;;7373048;19;20478;-70
2023/03/03 05:01:12;;;;;;;116.80;18.27;;;2.60;99.90;;;;;;7368542;19;20899;-63
2023/03/03 05:03:39;;;;;;;82.05;15.80;;;2.60;99.90;;;;;;7367890;19;20019;-63
2023/03/03 05:06:06;;;;;;;126.25;17.98;;;2.60;99.90;;;;;;7366707;19;20394;-62
2023/03/03 05:08:37;;;;;;;99.10;17.95;;;2.60;99.90;;;;;;7364884;19;20424;-63
2023/03/03 05:11:03;;;;;;;115.43;17.42;;;2.60;99.90;;;;;;7366313;19;20018;-63
2023/03/03 05:13:30;;;;;;;111.60;18.40;;;2.60;99.90;;;;;;7368850;19;20030;-70
2023/03/03 05:15:57;;;;;;;66.18;15.18;;;2.60;99.90;;;;;;7367071;19;20842;-70
2023/03/03 05:18:25;;;;;;;134.32;18.00;;;2.60;99.90;;;;;;7368725;19;20027;-69
2023/03/03 05:20:54;;;;;;;116.00;17.50;;;2.60;99.90;;;;;;7368387;19;20021;-70
2023/03/03 05:23:20;;;;;;;170.40;21.90;;;2.60;99.90;;;;;;7368467;19;20021;-69
2023/03/03 05:25:48;;;;;;;184.85;23.20;;;2.60;99.90;;;;;;7368712;19;20382;-70
2023/03/03 05:28:16;;;;;;;102.22;18.15;;;2.60;99.90;;;;;;7366271;19;20454;-70
2023/03/03 05:30:42;;;;;;;107.50;18.30;;;2.60;99.90;;;;;;7370029;19;20078;-70
2023/03/03 05:33:12;;;;;;;99.78;18.98;;;2.60;99.90;;;;;;7367778;19;20018;-70
2023/03/03 05:35:39;;;;;;;124.53;20.83;;;2.60;99.90;;;;;;7370091;19;20394;-70
2023/03/03 05:38:05;;;;;;;112.68;20.25;;;2.60;99.90;;;;;;7364839;19;20469;-70
2023/03/03 05:40:34;;;;;;;139.52;20.13;;;2.60;99.90;;;;;;7365239;19;20090;-70
2023/03/03 05:43:00;;;;;;;125.63;19.90;;;2.60;99.90;;;;;;7365083;19;20022;-69
2023/03/03 05:45:27;;;;;;;167.93;25.27;;;2.50;99.90;;;;;;7367367;19;20454;-69
2023/03/03 05:47:56;;;;;;;88.28;18.88;;;2.60;99.90;;;;;;7368512;19;20666;-69
2023/03/03 05:50:23;;;;;;;143.93;23.60;;;2.60;99.90;;;;;;7368137;19;21575;-69
2023/03/03 05:52:52;;;;;;;180.07;25.52;;;2.50;99.90;;;;;;7367396;19;20018;-69
2023/03/03 05:55:19;;;;;;;129.95;21.02;;;2.60;99.90;;;;;;7367758;19;20074;-69
2023/03/03 05:57:45;;;;;;;86.93;18.52;;;2.50;99.90;;;;;;7367272;19;20041;-69
2023/03/03 06:00:14;;;;;;;163.38;21.88;;;2.50;99.90;;;;;;7365859;19;20879;-70
2023/03/03 06:02:41;;;;;;;117.57;18.90;;;2.50;99.90;;;;;;7369539;19;21310;-69
2023/03/03 06:05:08;;;;;;;84.18;17.55;;;2.50;99.90;;;;;;7366417;19;20046;-69
2023/03/03 06:07:35;;;;;;;79.07;14.95;;;2.50;99.90;;;;;;7368104;19;20021;-69
2023/03/03 06:10:01;;;;;;;57.97;15.50;;;2.50;99.90;;;;;;7365592;19;20022;-69
2023/03/03 06:12:30;;;;;;;66.50;15.07;;;2.50;99.90;;;;;;7365741;19;20922;-63
2023/03/03 06:14:56;;;;;;;91.13;18.05;;;2.50;99.90;;;;;;7366000;19;20603;-63
2023/03/03 06:17:23;;;;;;;160.55;24.10;;;2.50;99.90;;;;;;7371296;19;20029;-63
2023/03/03 06:19:49;;;;;;;99.05;19.95;;;2.50;99.90;;;;;;7363908;19;20130;-62
2023/03/03 06:22:16;;;;;;;121.90;22.17;;;2.50;99.90;;;;;;7363653;19;20025;-62
2023/03/03 06:24:42;;;;;;;121.57;22.50;;;2.50;99.90;;;;;;7366812;19;20654;-63
2023/03/03 06:27:09;;;;;;;92.38;18.60;;;2.50;99.90;;;;;;7365199;19;20022;-63
2023/03/03 06:29:35;;;;;;;127.15;21.42;;;2.50;99.90;;;;;;7367848;19;20021;-63
2023/03/03 06:32:04;;;;;;;120.32;19.88;;;2.50;99.90;;;;;;7360159;19;20779;-63
2023/03/03 06:34:31;;;;;;;169.43;25.15;;;2.50;99.90;;;;;;7368259;19;20018;-62
2023/03/03 06:36:58;;;;;;;143.00;22.40;;;2.50;99.90;;;;;;7370456;19;20025;-62
2023/03/03 06:39:24;;;;;;;180.13;24.90;;;2.50;99.90;;;;;;7373278;19;20022;-62
2023/03/03 06:41:51;;;;;;;96.95;18.92;;;2.40;99.90;;;;;;7366713;19;20010;-63
2023/03/03 06:44:18;;;;;;;154.35;21.52;;;2.50;99.90;;;;;;7368260;19;20019;-70
2023/03/03 06:46:44;;;;;;;166.40;24.42;;;2.50;99.90;;;;;;7366489;19;20021;-70
2023/03/03 06:49:10;;;;;;;165.98;23.35;;;2.50;99.90;;;;;;7367806;19;20520;-62
2023/03/03 06:51:38;;;;;;;162.85;20.17;;;2.50;99.90;;;;;;7371631;19;20481;-62
2023/03/03 06:54:17;;;;;;;219.93;29.27;;;2.50;99.90;;;;;;7370320;19;20019;-63
2023/03/03 06:56:45;;;;;;;156.73;21.83;;;2.50;99.90;;;;;;7368416;19;20018;-63
2023/03/03 06:59:18;;;;;;;93.05;17.77;;;2.60;99.90;;;;;;7367547;19;20034;-63
2023/03/03 07:01:48;;;;;;;162.75;22.00;;;2.60;99.90;;;;;;7365350;19;20033;-62
2023/03/03 07:04:27;;;;;;;147.32;20.08;;;2.60;99.90;;;;;;7370599;19;20086;-68
2023/03/03 07:06:55;;;;;;;93.95;16.10;;;2.60;99.90;;;;;;7372126;19;20032;-68
2023/03/03 07:09:28;;;;;;;144.68;19.15;;;2.70;99.90;;;;;;7373986;19;20014;-68
2023/03/03 07:12:18;;;;;;;238.48;24.88;;;2.80;99.90;;;;;;7368999;19;20109;-69
2023/03/03 07:14:49;;;;;;;94.50;13.93;;;2.80;99.90;;;;;;7369542;19;20022;-63
2023/03/03 07:17:20;;;;;;;88.10;12.38;;;2.80;99.90;;;;;;7368605;19;20025;-69
2023/03/03 07:20:16;;;;;;;72.38;12.13;;;2.90;99.90;;;;;;7371636;19;20787;-63
2023/03/03 07:22:59;;;;;;;197.32;21.13;;;2.90;99.90;;;;;;7372292;19;20679;-62
2023/03/03 07:25:32;;;;;;;171.82;19.60;;;3.00;99.90;;;;;;7371172;19;20018;-62
2023/03/03 07:28:06;;;;;;;;;;;2.90;99.90;;;;;;7369176;19;20047;-63
2023/03/03 07:30:36;;;;;;;111.88;15.63;;;3.00;99.90;;;;;;7371073;19;19945;-62
2023/03/03 07:33:04;;;;;;;66.18;12.90;;;3.00;99.90;;;;;;7371201;19;20042;-66
2023/03/03 07:35:41;;;;;;;70.10;12.90;;;3.10;99.90;;;;;;7372064;19;20010;-62
2023/03/03 07:38:33;;;;;;;75.35;11.50;;;3.20;99.90;;;;;;7369261;19;20006;-62
2023/03/03 07:41:07;;;;;;;68.07;11.10;;;3.20;99.90;;;;;;7371403;19;20023;-63
2023/03/03 07:43:53;;;;;;;45.58;9.68;;;3.20;99.90;;;;;;7369431;19;20025;-63
2023/03/03 07:46:27;;;;;;;110.28;13.48;;;3.20;99.90;;;;;;7374714;19;20011;-62
2023/03/03 07:48:56;;;;;;;58.13;10.95;;;3.20;99.90;;;;;;7375785;19;20014;-62
2023/03/03 07:51:28;;;;;;;22.70;8.43;;;3.20;99.90;;;;;;7372536;19;20019;-68
2023/03/03 07:54:19;;;;;;;30.90;9.18;;;3.30;99.90;;;;;;7376373;19;20477;-68
2023/03/03 07:56:49;;;;;;;39.85;9.13;;;3.30;99.90;;;;;;7375424;19;20018;-68
2023/03/03 07:59:24;;;;;;;24.25;7.63;;;3.40;99.90;;;;;;7380284;19;20494;-63
2023/03/03 08:01:55;;;;;;;51.70;10.65;;;3.40;99.90;;;;;;7375441;19;20816;-63
2023/03/03 08:04:24;;;;;;;35.00;9.38;;;3.40;99.90;;;;;;7380492;19;20055;-68
2023/03/03 08:06:59;;;;;;;25.08;9.38;;;3.40;99.90;;;;;;7377057;19;20111;-68
2023/03/03 08:09:41;;;;;;;26.50;9.80;;;3.40;99.90;;;;;;7381123;19;20030;-64
2023/03/03 08:12:32;;;;;;;35.08;10.50;;;3.50;99.90;;;;;;7380707;19;20765;-63
2023/03/03 08:15:21;;;;;;;32.90;8.93;;;3.40;99.90;;;;;;7381588;19;20493;-63
2023/03/03 08:17:55;;;;;;;45.72;9.35;;;3.30;99.90;;;;;;7381734;19;20056;-63
2023/03/03 08:20:28;;;;;;;25.85;7.70;;;3.20;99.90;;;;;;7379786;19;20018;-69
2023/03/03 08:22:55;;;;;;;19.25;6.80;;;3.20;99.90;;;;;;7380341;19;20011;-67
2023/03/03 08:25:21;;;;;;;25.67;7.38;;;3.40;99.90;;;;;;7375825;19;20352;-63
2023/03/03 08:27:48;;;;;;;22.45;8.15;;;3.50;99.90;;;;;;7382631;19;20015;-63
2023/03/03 08:30:14;;;;;;;45.15;8.07;;;3.50;99.90;;;;;;7376394;19;20438;-63
2023/03/03 08:32:40;;;;;;;17.77;6.80;;;3.50;99.90;;;;;;7379711;19;20047;-63
2023/03/03 08:35:10;;;;;;;61.67;8.55;;;3.70;99.90;;;;;;7377446;19;20029;-63
2023/03/03 08:37:36;;;;;;;43.42;8.00;;;3.60;99.90;;;;;;7378351;19;20046;-63
2023/03/03 08:40:06;;;;;;;48.40;9.35;;;3.70;99.90;;;;;;7376597;19;20018;-63
2023/03/03 08:42:33;;;;;;;24.73;7.85;;;3.70;99.90;;;;;;7373973;19;21065;-63
2023/03/03 08:44:59;;;;;;;38.10;9.07;;;3.80;99.90;;;;;;7373100;19;20014;-69
2023/03/03 08:47:26;;;;;;;26.13;7.88;;;3.90;99.90;;;;;;7377542;19;20374;-68
2023/03/03 08:49:53;;;;;;;29.23;9.20;;;4.00;99.90;;;;;;7376389;19;20014;-63
2023/03/03 08:52:19;;;;;;;18.67;7.78;;;4.10;99.90;;;;;;7373075;19;21274;-63
2023/03/03 08:54:46;;;;;;;21.77;7.78;;;4.20;99.90;;;;;;7373761;19;20032;-63
2023/03/03 08:57:12;;;;;;;36.55;9.85;;;4.30;99.90;;;;;;7375551;19;20474;-68
2023/03/03 08:59:39;;;;;;;33.85;9.45;;;4.40;99.90;;;;;;7377479;19;20037;-70
2023/03/03 09:02:06;;;;;;;56.42;11.43;;;4.40;99.90;;;;;;7369314;19;20053;-63
2023/03/03 09:04:33;;;;;;;46.90;10.90;;;4.40;99.90;;;;;;7374450;19;20018;-69
2023/03/03 09:07:00;;;;;;;23.60;9.68;;;4.40;99.90;;;;;;7372915;19;20026;-62
2023/03/03 09:09:29;;;;;;;58.03;9.32;;;4.60;99.90;;;;;;7365479;19;20481;-63
2023/03/03 09:12:04;;;;;;;19.48;8.30;;;4.60;99.90;;;;;;7374742;19;20497;-69
2023/03/03 09:14:31;;;;;;;20.60;7.70;;;4.80;99.90;;;;;;7378348;19;20022;-63
2023/03/03 09:16:58;;;;;;;48.80;8.48;;;4.90;99.90;;;;;;7378426;19;20469;-69
2023/03/03 09:19:31;;;;;;;15.23;7.28;;;5.00;99.90;;;;;;7374903;19;20014;-69
2023/03/03 09:22:22;;;;;;;15.25;7.75;;;4.90;99.90;;;;;;7370597;19;20034;-69
2023/03/03 09:24:52;;;;;;;11.05;6.75;;;4.90;99.90;;;;;;7375508;19;20481;-68
2023/03/03 09:27:33;;;;;;;25.60;7.20;;;4.70;99.90;;;;;;7378496;19;20426;-68
2023/03/03 09:30:25;;;;;;;17.17;7.28;;;4.70;99.90;;;;;;7374985;19;20348;-68
2023/03/03 09:32:57;;;;;;;13.10;6.85;;;4.50;99.90;;;;;;7375679;19;20018;-63
2023/03/03 09:35:36;;;;;;;9.52;6.85;;;4.50;99.90;;;;;;7377386;19;20018;-62
2023/03/03 09:38:18;;;;;;;12.07;6.38;;;4.40;99.90;;;;;;7373247;19;20477;-69
2023/03/03 09:41:05;;;;;;;10.18;6.38;;;4.40;99.90;;;;;;7377308;19;20024;-68
2023/03/03 09:43:45;;;;;;;12.27;6.65;;;4.30;99.90;;;;;;7372555;19;20026;-69
2023/03/03 09:46:12;;;;;;;12.13;7.32;;;4.20;99.90;;;;;;7377868;19;20033;-69
2023/03/03 09:49:02;;;;;;;14.15;7.32;;;4.30;99.90;;;;;;7378785;19;20038;-69
2023/03/03 09:51:52;;;;;;;13.93;7.40;;;4.20;99.90;;;;;;7375919;19;20379;-69
2023/03/03 09:54:18;;;;;;;13.32;6.85;;;4.20;99.90;;;;;;7374887;19;20018;-64
2023/03/03 09:57:08;;;;;;;15.60;8.07;;;4.30;99.90;;;;;;7374389;19;20023;-62
2023/03/03 09:59:38;;;;;;;11.07;7.28;;;4.40;99.90;;;;;;7374423;19;20029;-62
2023/03/03 10:02:07;;;;;;;9.23;6.00;;;4.40;99.90;;;;;;7373949;19;20029;-62
2023/03/03 10:04:54;;;;;;;11.55;6.95;;;4.40;99.90;;;;;;7375974;19;20030;-62
2023/03/03 10:07:22;;;;;;;11.00;7.10;;;4.40;99.90;;;;;;7369837;19;20010;-62
2023/03/03 10:10:16;;;;;;;12.90;8.15;;;4.50;99.90;;;;;;7372054;19;20022;-62
2023/03/03 10:13:21;;;;;;;11.88;7.28;;;4.50;99.90;;;;;;7372647;19;20014;-62
2023/03/03 10:16:09;;;;;;;8.63;6.65;;;4.60;99.90;;;;;;7377165;19;20831;-62
2023/03/03 10:18:51;;;;;;;12.75;7.97;;;4.60;99.90;;;;;;7367266;19;20018;-69
2023/03/03 10:21:20;;;;;;;13.82;7.70;;;4.70;99.90;;;;;;7362482;19;21209;-62
2023/03/03 10:23:56;;;;;;;10.55;7.68;;;4.80;99.90;;;;;;7363319;19;20018;-62
2023/03/03 10:26:57;;;;;;;14.43;8.18;;;4.90;99.90;;;;;;7364450;19;20980;-63
2023/03/03 10:29:50;;;;;;;14.05;9.10;;;4.90;99.90;;;;;;7366746;19;20014;-62
2023/03/03 10:33:12;;;;;;;11.63;8.43;;;4.90;99.90;;;;;;7363664;19;20025;-62
2023/03/03 10:36:11;;;;;;;15.15;8.77;;;5.00;99.90;;;;;;7359285;19;20037;-62
2023/03/03 10:39:28;;;;;;;14.88;8.85;;;5.20;99.90;;;;;;7364441;19;20017;-62
2023/03/03 10:42:21;;;;;;;11.77;7.82;;;5.30;99.90;;;;;;7362178;19;20022;-62
2023/03/03 10:45:28;;;;;;;13.73;7.97;;;5.50;99.90;;;;;;7360620;19;20030;-62
2023/03/03 10:48:34;;;;;;;11.75;7.55;;;5.60;99.90;;;;;;7364593;19;20011;-62
2023/03/03 10:51:19;;;;;;;9.45;6.95;;;5.60;99.90;;;;;;7363194;19;20033;-61
2023/03/03 10:54:03;;;;;;;10.13;6.40;;;5.80;99.90;;;;;;7362082;19;20125;-62
2023/03/03 10:57:04;;;;;;;8.80;7.05;;;6.00;99.90;;;;;;7365469;19;20018;-63
2023/03/03 11:00:01;;;;;;;11.68;7.20;;;6.00;99.90;;;;;;7364032;19;20360;-63
2023/03/03 11:02:35;;;;;;;10.00;6.75;;;6.20;99.90;;;;;;7362299;19;20014;-69
2023/03/03 11:05:38;;;;;;;8.82;6.53;;;6.30;99.90;;;;;;7364237;19;20014;-69
2023/03/03 11:08:17;;;;;;;12.27;6.57;;;6.30;99.90;;;;;;7368009;19;20023;-69
2023/03/03 11:10:53;;;;;;;10.68;7.45;;;6.40;99.90;;;;;;7365643;19;20022;-69
2023/03/03 11:13:46;;;;;;;12.85;8.35;;;6.40;99.90;;;;;;7363363;19;20034;-69
2023/03/03 11:16:16;;;;;;;8.55;6.43;;;6.40;99.90;;;;;;7359965;19;20045;-69
2023/03/03 11:19:00;;;;;;;10.40;6.63;;;6.40;99.90;;;;;;7364423;19;20090;-70
2023/03/03 11:21:33;;;;;;;7.05;5.68;;;6.70;99.90;;;;;;7364970;19;20597;-69
2023/03/03 11:24:14;;;;;;;8.52;5.15;;;6.80;99.90;;;;;;7366032;19;20088;-69
2023/03/03 11:26:58;;;;;;;8.32;5.55;;;7.00;99.90;;;;;;7366859;19;20023;-63
2023/03/03 11:29:42;;;;;;;6.82;4.88;;;6.90;99.90;;;;;;7365683;19;20077;-62
2023/03/03 11:32:26;;;;;;;10.38;5.32;;;7.00;99.90;;;;;;7363580;19;20015;-62
2023/03/03 11:34:59;;;;;;;7.82;4.97;;;7.30;99.90;;;;;;7363871;19;20699;-62
2023/03/03 11:37:57;;;;;;;9.05;5.13;;;7.20;99.90;;;;;;7364893;19;20034;-62
2023/03/03 11:40:54;;;;;;;10.90;5.05;;;7.40;99.90;;;;;;7363026;19;20054;-62
2023/03/03 11:43:36;;;;;;;7.28;4.80;;;7.80;99.90;;;;;;7360552;19;20015;-62
2023/03/03 11:46:14;;;;;;;7.72;4.65;;;8.40;99.90;;;;;;7360528;19;20667;-62
2023/03/03 11:48:49;;;;;;;6.13;4.50;;;8.70;99.90;;;;;;7366593;19;20023;-62
2023/03/03 11:51:29;;;;;;;7.47;4.10;;;8.90;99.90;;;;;;7362519;19;20011;-62
2023/03/03 11:54:16;;;;;;;7.47;4.60;;;9.20;99.90;;;;;;7363172;19;20018;-62
2023/03/03 11:56:46;;;;;;;7.15;4.22;;;9.30;99.90;;;;;;7366420;19;20026;-63
2023/03/03 11:59:30;;;;;;;6.45;3.55;;;10.10;99.90;;;;;;7363285;19;20050;-62
2023/03/03 12:02:08;;;;;;;8.23;3.47;;;10.40;99.90;;;;;;7360228;19;20022;-63
2023/03/03 12:04:48;;;;;;;6.43;3.65;;;10.70;99.90;;;;;;7364145;19;20545;-69
2023/03/03 12:07:40;;;;;;;5.25;3.05;;;10.90;99.90;;;;;;7372266;19;20018;-70
2023/03/03 12:10:22;;;;;;;6.78;3.17;;;11.00;99.90;;;;;;7373390;19;20025;-70
2023/03/03 12:13:18;;;;;;;9.60;3.33;;;10.40;99.90;;;;;;7374561;19;20007;-70
2023/03/03 12:16:07;;;;;;;6.70;2.85;;;10.40;99.90;;;;;;7375313;19;20702;-70
2023/03/03 12:18:56;;;;;;;3.92;2.28;;;10.20;99.90;;;;;;7372741;19;20042;-70
2023/03/03 12:21:22;;;;;;;5.05;2.80;;;9.90;99.90;;;;;;7372501;19;20023;-70
2023/03/03 12:24:21;;;;;;;5.47;2.33;;;9.80;99.90;;;;;;7374245;19;20482;-70
2023/03/03 12:27:06;;;;;;;6.70;2.50;;;9.50;99.90;;;;;;7368128;19;20025;-70
2023/03/03 12:29:50;;;;;;;4.10;2.22;;;9.40;99.90;;;;;;7372066;19;20022;-62
2023/03/03 12:32:26;;;;;;;4.65;2.95;;;9.60;99.90;;;;;;7369799;19;20029;-63
2023/03/03 12:35:11;;;;;;;4.45;2.30;;;9.50;99.90;;;;;;7366492;19;20018;-64
2023/03/03 12:37:46;;;;;;;4.18;2.20;;;9.70;99.90;;;;;;7371814;19;20027;-63
2023/03/03 12:40:20;;;;;;;5.35;1.95;;;10.00;99.90;;;;;;7367563;19;20396;-63
2023/03/03 12:42:57;;;;;;;5.15;1.40;;;10.30;99.90;;;;;;7369701;19;20023;-63
2023/03/03 12:45:37;;;;;;;3.75;1.65;;;10.10;99.90;;;;;;7375741;19;20039;-71
2023/03/03 12:48:45;;;;;;;3.28;1.48;;;9.80;99.90;;;;;;7376965;19;20011;-71
2023/03/03 12:51:31;;;;;;;3.33;1.65;;;9.50;99.90;;;;;;7372205;19;20018;-63
2023/03/03 12:54:26;;;;;;;3.75;1.52;;;9.10;99.90;;;;;;7375588;19;20022;-65
2023/03/03 12:57:07;;;;;;;5.50;1.95;;;9.20;99.90;;;;;;7374894;19;20026;-64
2023/03/03 12:59:49;;;;;;;4.28;1.83;;;9.00;99.90;;;;;;7366992;19;20052;-64
2023/03/03 13:02:27;;;;;;;4.40;1.83;;;8.90;99.90;;;;;;7362427;19;20022;-63
2023/03/03 13:05:20;;;;;;;4.75;1.45;;;8.80;99.90;;;;;;7369828;19;20954;-63
2023/03/03 13:08:11;;;;;;;5.75;1.88;;;9.00;99.90;;;;;;7372258;19;20026;-64
2023/03/03 13:11:05;;;;;;;12.88;8.25;;;9.10;99.90;;;;;;7370034;19;20035;-63
2023/03/03 13:13:43;;;;;;;5.97;2.92;;;9.10;99.90;;;;;;7372057;19;20089;-71
2023/03/03 13:16:36;;;;;;;3.97;2.50;;;9.20;99.90;;;;;;7368884;19;20030;-71